Time;durP1;ratioP1;P1;durP2;ratioP2;P2;SDS_P1;SDS_P2;PMS_P1;PMS_P2;Temp;Humidity;BMP_temperature;BMP_pressure;BME280_temperature;BME280_humidity;BME280_pressure;Samples;Min_cycle;Max_cycle;Signal;HPM_P1;HPM_P2
2021/09/05 00:02:37;;;;;;;62.70;36.97;;;;;15.10;101361.00;;;;12870833;22;20199;-80
2021/09/05 00:07:39;;;;;;;59.33;35.33;;;;;15.10;101361.00;;;;12870375;22;20188;-80
2021/09/05 00:12:42;;;;;;;56.03;35.00;;;;;15.00;101359.00;;;;12869899;22;20173;-80
2021/09/05 00:17:43;;;;;;;60.70;35.40;;;;;14.90;101368.00;;;;12869774;22;20189;-81
2021/09/05 00:22:46;;;;;;;64.23;37.93;;;;;14.80;101369.00;;;;12891672;22;20181;-80
2021/09/05 00:27:48;;;;;;;65.83;38.40;;;;;14.80;101366.00;;;;12869667;22;20183;-80
2021/09/05 00:32:51;;;;;;;70.50;39.53;;;;;14.70;101366.00;;;;12869554;22;20173;-80
2021/09/05 00:37:53;;;;;;;76.73;37.80;;;;;14.70;101367.00;;;;12870162;22;20172;-80
2021/09/05 00:42:54;;;;;;;73.87;39.57;;;;;14.70;101366.00;;;;12870937;22;20189;-80
2021/09/05 00:47:55;;;;;;;77.67;42.40;;;;;14.70;101374.00;;;;12894242;22;20172;-80
2021/09/05 00:52:56;;;;;;;80.87;42.30;;;;;14.60;101361.00;;;;12893425;22;20192;-80
2021/09/05 00:57:58;;;;;;;88.23;43.97;;;;;14.60;101362.00;;;;12894034;22;20192;-80
2021/09/05 01:03:01;;;;;;;72.00;41.03;;;;;14.50;101369.00;;;;12872076;22;20193;-79
2021/09/05 01:08:04;;;;;;;81.70;40.43;;;;;14.50;101367.00;;;;12870728;22;20206;-80
2021/09/05 01:13:07;;;;;;;85.80;45.33;;;;;14.40;101357.00;;;;12895748;22;20181;-80
2021/09/05 01:18:08;;;;;;;84.63;42.43;;;;;14.40;101358.00;;;;12871406;22;20200;-80
2021/09/05 01:23:26;;;;;;;93.30;45.43;;;;;14.40;101367.00;;;;12874430;22;20193;-80
2021/09/05 01:28:56;;;;;;;84.10;42.97;;;;;14.30;101381.00;;;;12899206;22;20170;-79
2021/09/05 01:34:19;;;;;;;83.70;43.30;;;;;14.30;101383.00;;;;12891907;22;20177;-79
2021/09/05 01:39:41;;;;;;;83.23;43.00;;;;;14.20;101377.00;;;;12898757;22;20173;-79
2021/09/05 01:45:11;;;;;;;80.90;41.40;;;;;14.10;101380.00;;;;12870819;22;20313;-80
2021/09/05 01:50:31;;;;;;;81.43;42.70;;;;;14.10;101387.00;;;;12902080;22;20169;-80
2021/09/05 01:55:32;;;;;;;83.63;42.30;;;;;14.10;101380.00;;;;12898175;22;20232;-79
2021/09/05 02:00:39;;;;;;;84.90;42.03;;;;;14.00;101382.00;;;;12896933;22;20169;-79
2021/09/05 02:05:50;;;;;;;90.93;41.53;;;;;13.90;101380.00;;;;12874875;22;20205;-80
2021/09/05 02:11:29;;;;;;;91.97;43.70;;;;;13.90;101386.00;;;;12922722;22;20169;-80
2021/09/05 02:16:58;;;;;;;76.80;40.20;;;;;13.90;101395.00;;;;12922974;22;20193;-80
2021/09/05 02:22:26;;;;;;;79.60;40.77;;;;;13.80;101397.00;;;;12875024;22;20208;-79
2021/09/05 02:27:47;;;;;;;82.37;41.57;;;;;13.80;101401.00;;;;12864989;22;20174;-80
2021/09/05 02:33:09;;;;;;;89.37;42.43;;;;;13.80;101398.00;;;;12857115;22;20264;-79
2021/09/05 02:38:31;;;;;;;96.97;44.77;;;;;13.80;101402.00;;;;12872276;22;20745;-80
2021/09/05 02:44:02;;;;;;;91.77;44.50;;;;;13.80;101398.00;;;;12856957;22;20201;-79
2021/09/05 02:49:27;;;;;;;104.90;46.37;;;;;13.90;101403.00;;;;12867488;22;20177;-80
2021/09/05 02:54:47;;;;;;;113.63;47.53;;;;;13.90;101390.00;;;;12899854;22;20177;-80
2021/09/05 03:00:04;;;;;;;112.00;48.13;;;;;13.90;101385.00;;;;12851620;22;20178;-80
2021/09/05 03:05:24;;;;;;;108.20;47.10;;;;;13.90;101397.00;;;;12943079;22;20196;-80
2021/09/05 03:10:39;;;;;;;103.00;44.97;;;;;13.90;101399.00;;;;12923360;22;20169;-79
2021/09/05 03:16:12;;;;;;;101.93;44.73;;;;;13.80;101391.00;;;;12885496;22;20221;-79
2021/09/05 03:21:38;;;;;;;97.53;44.53;;;;;13.70;101387.00;;;;12860210;22;20176;-80
2021/09/05 03:26:58;;;;;;;95.33;43.50;;;;;13.70;101391.00;;;;12875316;22;20201;-79
2021/09/05 03:32:18;;;;;;;98.00;44.97;;;;;13.60;101391.00;;;;12925372;22;20180;-80
2021/09/05 03:37:39;;;;;;;97.87;44.37;;;;;13.50;101395.00;;;;12875700;22;20169;-79
2021/09/05 03:42:59;;;;;;;106.20;47.00;;;;;13.50;101393.00;;;;12871478;22;20236;-79
2021/09/05 03:48:20;;;;;;;101.40;45.67;;;;;13.50;101392.00;;;;12919097;22;20249;-80
2021/09/05 03:53:30;;;;;;;94.93;44.40;;;;;13.40;101388.00;;;;12847614;22;20192;-80
2021/09/05 03:58:31;;;;;;;99.53;43.90;;;;;13.30;101388.00;;;;12896388;22;20170;-80
2021/09/05 04:03:32;;;;;;;97.00;44.50;;;;;13.20;101385.00;;;;12872849;22;20197;-80
2021/09/05 04:08:46;;;;;;;93.40;43.70;;;;;13.20;101386.00;;;;12894816;22;20268;-80
2021/09/05 04:13:49;;;;;;;95.67;42.37;;;;;13.10;101387.00;;;;12848633;22;20197;-80
2021/09/05 04:18:50;;;;;;;104.97;44.33;;;;;13.10;101398.00;;;;12873085;22;20513;-80
2021/09/05 04:23:51;;;;;;;113.23;45.50;;;;;13.10;101397.00;;;;12847487;22;20641;-80
2021/09/05 04:28:52;;;;;;;117.90;47.57;;;;;13.10;101402.00;;;;12847376;22;20541;-80
2021/09/05 04:33:53;;;;;;;115.53;46.60;;;;;13.10;101396.00;;;;12846732;22;20180;-80
2021/09/05 04:38:55;;;;;;;109.50;46.53;;;;;13.10;101397.00;;;;12873184;22;20173;-80
2021/09/05 04:43:56;;;;;;;112.17;47.13;;;;;13.00;101401.00;;;;12875827;22;20587;-79
2021/09/05 04:48:57;;;;;;;104.13;45.80;;;;;13.00;101398.00;;;;12898361;22;20169;-80
2021/09/05 04:53:58;;;;;;;109.90;47.10;;;;;12.90;101410.00;;;;12898020;22;20629;-80
2021/09/05 04:58:59;;;;;;;106.07;44.53;;;;;12.90;101420.00;;;;12899246;22;20184;-80
2021/09/05 05:04:02;;;;;;;102.03;42.57;;;;;12.90;101425.00;;;;12946135;22;20193;-79
2021/09/05 05:09:12;;;;;;;108.40;44.53;;;;;12.90;101412.00;;;;12899514;22;20201;-80
2021/09/05 05:14:13;;;;;;;102.70;44.60;;;;;12.90;101419.00;;;;12849380;22;20166;-80
2021/09/05 05:19:15;;;;;;;99.77;44.93;;;;;12.90;101419.00;;;;12874414;22;20271;-80
2021/09/05 05:24:16;;;;;;;112.73;45.43;;;;;13.00;101424.00;;;;12940518;22;20193;-79
2021/09/05 05:29:17;;;;;;;110.13;45.93;;;;;13.20;101437.00;;;;12850354;22;20256;-80
2021/09/05 05:34:18;;;;;;;110.50;47.40;;;;;13.50;101447.00;;;;12875506;22;20177;-79
2021/09/05 05:39:19;;;;;;;117.33;48.47;;;;;13.90;101463.00;;;;12851841;22;20173;-79
2021/09/05 05:44:20;;;;;;;111.37;46.87;;;;;14.30;101473.00;;;;12877150;22;20189;-79
2021/09/05 05:49:21;;;;;;;97.03;46.40;;;;;14.60;101507.00;;;;12851217;22;20216;-79
2021/09/05 05:54:23;;;;;;;88.30;42.67;;;;;14.90;101520.00;;;;12875366;22;20498;-80
2021/09/05 05:59:24;;;;;;;77.33;40.33;;;;;14.90;101506.00;;;;12876370;22;20272;-80
2021/09/05 06:04:25;;;;;;;66.03;36.13;;;;;14.80;101481.00;;;;12901073;22;20704;-80
2021/09/05 06:09:26;;;;;;;66.90;37.93;;;;;14.70;101466.00;;;;12853091;22;20189;-80
2021/09/05 06:14:27;;;;;;;74.67;38.93;;;;;14.60;101471.00;;;;12852158;22;20252;-80
2021/09/05 06:19:28;;;;;;;66.00;38.77;;;;;14.60;101476.00;;;;12876279;22;20193;-80
2021/09/05 06:24:30;;;;;;;81.20;39.73;;;;;15.10;101499.00;;;;12899865;22;20208;-80
2021/09/05 06:29:32;;;;;;;67.20;38.77;;;;;15.50;101530.00;;;;12898835;22;20170;-81
2021/09/05 06:34:34;;;;;;;63.43;38.10;;;;;16.00;101541.00;;;;12874391;22;20205;-79
2021/09/05 06:39:35;;;;;;;54.90;33.60;;;;;16.20;101561.00;;;;12848310;22;20228;-80
2021/09/05 06:44:37;;;;;;;56.27;33.43;;;;;16.40;101565.00;;;;12897769;22;20193;-80
2021/09/05 06:49:38;;;;;;;51.00;32.28;;;;;16.70;101573.00;;;;12871669;22;20173;-80
2021/09/05 06:54:39;;;;;;;56.85;35.30;;;;;17.00;101580.00;;;;12873218;22;20165;-80
2021/09/05 06:59:40;;;;;;;45.97;32.88;;;;;17.30;101575.00;;;;12872003;22;20173;-80
2021/09/05 07:04:41;;;;;;;44.95;31.70;;;;;17.40;101578.00;;;;12872231;22;20649;-80
2021/09/05 07:09:46;;;;;;;48.33;32.08;;;;;17.70;101568.00;;;;12848240;22;20165;-80
2021/09/05 07:14:48;;;;;;;43.90;29.75;;;;;17.90;101574.00;;;;12874148;22;20184;-79
2021/09/05 07:19:49;;;;;;;45.35;31.02;;;;;18.00;101573.00;;;;12847162;22;21016;-80
2021/09/05 07:24:50;;;;;;;44.85;31.25;;;;;18.30;101567.00;;;;12871809;22;20564;-80
2021/09/05 07:29:51;;;;;;;43.35;30.95;;;;;18.40;101559.00;;;;12897298;22;20610;-80
2021/09/05 07:34:52;;;;;;;49.25;32.65;;;;;18.60;101564.00;;;;12874289;22;20185;-80
2021/09/05 07:39:53;;;;;;;48.10;32.05;;;;;18.80;101552.00;;;;12871068;22;20256;-80
2021/09/05 07:44:56;;;;;;;43.85;31.42;;;;;18.90;101547.00;;;;12893109;22;20193;-80
2021/09/05 07:49:58;;;;;;;45.50;30.92;;;;;19.10;101557.00;;;;12870899;23;20177;-79
2021/09/05 07:55:00;;;;;;;42.25;31.35;;;;;19.50;101559.00;;;;12892397;22;20597;-80
2021/09/05 08:00:03;;;;;;;47.63;32.45;;;;;19.80;101561.00;;;;12868986;23;20174;-80
2021/09/05 08:05:13;;;;;;;51.10;34.10;;;;;20.10;101562.00;;;;12895617;22;20256;-80
2021/09/05 08:10:14;;;;;;;49.35;32.90;;;;;20.30;101563.00;;;;12940693;22;20165;-80
2021/09/05 08:15:15;;;;;;;49.90;33.20;;;;;20.50;101553.00;;;;12940739;22;20681;-80
2021/09/05 08:20:16;;;;;;;50.88;33.08;;;;;20.60;101553.00;;;;12897045;22;20252;-80
2021/09/05 08:25:17;;;;;;;47.00;31.17;;;;;20.90;101558.00;;;;12891801;22;20212;-80
2021/09/05 08:30:19;;;;;;;41.05;29.80;;;;;21.50;101562.00;;;;12842891;22;20177;-80
2021/09/05 08:35:20;;;;;;;45.15;30.45;;;;;22.10;101554.00;;;;12867032;22;20178;-79
2021/09/05 08:40:27;;;;;;;41.05;30.25;;;;;22.60;101551.00;;;;12843070;22;20165;-80
2021/09/05 08:45:28;;;;;;;40.20;28.38;;;;;23.10;101556.00;;;;12867076;22;20185;-80
2021/09/05 08:50:31;;;;;;;40.95;29.05;;;;;23.50;101558.00;;;;12913226;22;20235;-80
2021/09/05 08:55:32;;;;;;;39.13;29.05;;;;;23.90;101551.00;;;;12893845;22;20258;-81
2021/09/05 09:00:35;;;;;;;35.40;26.70;;;;;24.40;101555.00;;;;12870893;22;20220;-80
2021/09/05 09:05:43;;;;;;;37.75;28.60;;;;;24.70;101561.00;;;;12897872;22;20272;-81
2021/09/05 09:11:01;;;;;;;43.88;28.50;;;;;24.90;101566.00;;;;12896871;22;20328;-81
2021/09/05 09:16:06;;;;;;;37.63;28.60;;;;;25.30;101559.00;;;;12845144;22;20208;-81
2021/09/05 09:21:10;;;;;;;33.80;27.92;;;;;25.70;101559.00;;;;12920590;22;20173;-81
2021/09/05 09:26:13;;;;;;;36.70;27.92;;;;;25.60;101562.00;;;;12896772;22;20629;-82
2021/09/05 09:31:22;;;;;;;31.45;25.35;;;;;25.70;101570.00;;;;12874906;22;20170;-81
2021/09/05 09:36:26;;;;;;;32.33;25.05;;;;;26.20;101573.00;;;;12921506;22;20625;-82
2021/09/05 09:41:38;;;;;;;32.80;25.55;;;;;26.50;101570.00;;;;12899087;22;20173;-82
2021/09/05 09:46:41;;;;;;;32.80;24.20;;;;;26.60;101584.00;;;;12877218;22;20339;-82
2021/09/05 09:51:42;;;;;;;26.80;21.38;;;;;26.90;101575.00;;;;12874366;22;20285;-82
2021/09/05 09:56:43;;;;;;;31.92;23.88;;;;;26.80;101581.00;;;;12898857;22;20272;-82
2021/09/05 10:01:45;;;;;;;32.88;25.13;;;;;26.70;101570.00;;;;12898915;22;20228;-81
2021/09/05 10:06:47;;;;;;;31.67;23.95;;;;;27.00;101567.00;;;;12874492;22;20336;-82
2021/09/05 10:11:50;;;;;;;32.20;23.70;;;;;27.20;101566.00;;;;12897813;22;20260;-81
2021/09/05 10:16:52;;;;;;;26.42;22.50;;;;;27.50;101572.00;;;;12947104;22;20185;-81
2021/09/05 10:21:53;;;;;;;29.80;24.33;;;;;27.80;101571.00;;;;12875373;22;20260;-81
2021/09/05 10:27:03;;;;;;;27.27;21.73;;;;;28.00;101569.00;;;;12875577;22;20197;-82
2021/09/05 10:32:04;;;;;;;22.30;19.83;;;;;28.20;101570.00;;;;12945555;22;20173;-81
2021/09/05 10:37:13;;;;;;;25.02;19.17;;;;;28.30;101564.00;;;;12900332;22;20204;-81
2021/09/05 10:42:24;;;;;;;26.38;20.77;;;;;28.50;101559.00;;;;12947946;22;20162;-82
2021/09/05 10:47:42;;;;;;;24.52;19.42;;;;;28.60;101563.00;;;;12877468;22;20628;-81
2021/09/05 10:52:47;;;;;;;24.85;19.88;;;;;28.70;101555.00;;;;12875410;22;20180;-81
2021/09/05 10:58:00;;;;;;;26.20;20.45;;;;;28.80;101565.00;;;;12874593;22;20200;-80
2021/09/05 11:03:08;;;;;;;24.17;20.60;;;;;28.90;101555.00;;;;12865572;22;20204;-81
2021/09/05 11:08:24;;;;;;;25.75;21.90;;;;;28.90;101554.00;;;;12850202;22;20605;-82
2021/09/05 11:13:45;;;;;;;24.63;19.30;;;;;29.00;101553.00;;;;12898383;22;20295;-81
2021/09/05 11:18:47;;;;;;;23.80;19.35;;;;;29.30;101560.00;;;;12944038;22;20199;-81
2021/09/05 11:23:52;;;;;;;20.67;18.52;;;;;29.30;101557.00;;;;12873174;22;20193;-81
2021/09/05 11:28:53;;;;;;;21.90;17.85;;;;;29.50;101546.00;;;;12897504;22;20201;-82
2021/09/05 11:34:06;;;;;;;22.25;18.48;;;;;29.60;101554.00;;;;12872589;22;20169;-81
2021/09/05 11:39:08;;;;;;;16.83;15.10;;;;;29.70;101554.00;;;;12849553;22;20204;-82
2021/09/05 11:44:09;;;;;;;21.77;15.52;;;;;29.80;101556.00;;;;12881939;23;20194;-82
2021/09/05 11:49:10;;;;;;;17.33;14.73;;;;;29.80;101544.00;;;;12874109;22;20169;-81
2021/09/05 11:54:15;;;;;;;17.77;14.77;;;;;29.90;101553.00;;;;12879271;22;20243;-81
2021/09/05 11:59:17;;;;;;;17.88;13.35;;;;;29.80;101550.00;;;;12869414;22;20605;-81
2021/09/05 12:04:23;;;;;;;12.98;10.70;;;;;29.90;101552.00;;;;12893341;22;20221;-80
2021/09/05 12:09:26;;;;;;;13.35;11.77;;;;;30.00;101548.00;;;;12894047;22;20231;-81
2021/09/05 12:14:36;;;;;;;12.75;11.07;;;;;29.80;101556.00;;;;12868120;22;20180;-80
2021/09/05 12:19:53;;;;;;;12.02;10.77;;;;;30.00;101547.00;;;;12892899;22;20197;-81
2021/09/05 12:24:58;;;;;;;14.70;11.98;;;;;30.30;101550.00;;;;12893733;22;20193;-81
2021/09/05 12:30:27;;;;;;;13.88;11.68;;;;;30.50;101546.00;;;;12938376;22;20162;-81
2021/09/05 12:35:29;;;;;;;15.52;11.80;;;;;30.60;101542.00;;;;12868902;22;20174;-81
2021/09/05 12:40:35;;;;;;;10.45;9.15;;;;;30.50;101547.00;;;;12866265;22;20244;-82
2021/09/05 12:45:53;;;;;;;13.20;10.13;;;;;30.40;101540.00;;;;12864229;22;20193;-81
2021/09/05 12:51:03;;;;;;;15.43;12.32;;;;;30.40;101541.00;;;;12892224;22;20660;-82
2021/09/05 12:56:05;;;;;;;12.25;10.60;;;;;30.50;101541.00;;;;12869273;22;20260;-82
2021/09/05 13:01:06;;;;;;;13.15;11.75;;;;;30.50;101538.00;;;;12892957;22;20177;-82
2021/09/05 13:06:09;;;;;;;12.18;10.27;;;;;30.40;101543.00;;;;12867535;22;20198;-82
2021/09/05 13:11:11;;;;;;;9.77;8.32;;;;;30.40;101541.00;;;;12893060;22;20169;-82
2021/09/05 13:16:15;;;;;;;12.13;10.43;;;;;30.50;101536.00;;;;12892643;22;20691;-82
2021/09/05 13:21:18;;;;;;;12.73;9.27;;;;;30.50;101537.00;;;;12900057;22;20166;-82
2021/09/05 13:26:23;;;;;;;11.75;9.77;;;;;30.40;101527.00;;;;12868801;22;20260;-82
2021/09/05 13:31:28;;;;;;;12.68;10.70;;;;;30.30;101530.00;;;;12873632;22;20645;-82
2021/09/05 13:36:34;;;;;;;11.50;10.20;;;;;30.10;101532.00;;;;12846157;22;20177;-81
2021/09/05 13:41:35;;;;;;;10.80;9.80;;;;;30.10;101526.00;;;;12895258;22;20536;-81
2021/09/05 13:46:37;;;;;;;9.77;7.97;;;;;30.30;101521.00;;;;12847382;22;20230;-81
2021/09/05 13:51:38;;;;;;;11.32;8.80;;;;;30.20;101524.00;;;;12942316;22;20212;-82
2021/09/05 13:56:40;;;;;;;9.85;8.48;;;;;30.20;101524.00;;;;12848477;22;20188;-81
2021/09/05 14:01:42;;;;;;;13.50;8.35;;;;;30.20;101525.00;;;;12873264;22;20166;-82
2021/09/05 14:06:44;;;;;;;10.43;8.55;;;;;30.40;101514.00;;;;12897363;22;20194;-82
2021/09/05 14:11:47;;;;;;;8.48;7.45;;;;;30.50;101521.00;;;;12852394;22;20268;-82
2021/09/05 14:16:48;;;;;;;8.00;7.20;;;;;31.20;101515.00;;;;12841718;22;20201;-82
2021/09/05 14:21:51;;;;;;;7.47;6.63;;;;;32.20;101523.00;;;;12889421;22;20692;-82
2021/09/05 14:26:57;;;;;;;10.15;7.55;;;;;33.00;101499.00;;;;12869659;22;20261;-82
2021/09/05 14:32:10;;;;;;;9.95;8.98;;;;;32.50;101496.00;;;;12894789;22;20405;-82
2021/09/05 14:48:07;;;;;;;9.70;7.85;;;;;34.50;101495.00;;;;12893610;22;20240;-81
2021/09/05 14:58:25;;;;;;;8.77;7.85;;;;;30.40;101512.00;;;;12890606;22;20640;-81
2021/09/05 15:03:36;;;;;;;12.32;9.02;;;;;29.50;101521.00;;;;12895110;22;20220;-80
2021/09/05 15:14:01;;;;;;;10.30;8.52;;;;;27.90;101522.00;;;;12939939;22;20193;-81
2021/09/05 15:19:02;;;;;;;10.18;8.70;;;;;27.50;101515.00;;;;12868691;23;20708;-81
2021/09/05 15:24:04;;;;;;;10.13;8.50;;;;;27.40;101513.00;;;;12843119;22;20252;-81
2021/09/05 15:29:18;;;;;;;10.55;8.73;;;;;26.90;101514.00;;;;12892866;22;20196;-80
2021/09/05 15:55:04;;;;;;;13.18;10.63;;;;;25.80;101520.00;;;;12875192;22;20201;-82
2021/09/05 16:21:21;;;;;;;10.65;7.95;;;;;25.10;101530.00;;;;12916081;22;20168;-81
2021/09/05 16:26:25;;;;;;;14.00;9.35;;;;;25.00;101532.00;;;;12942057;22;20181;-81
2021/09/05 16:31:28;;;;;;;11.55;8.60;;;;;25.00;101537.00;;;;12896716;22;20536;-82
2021/09/05 16:36:55;;;;;;;12.68;8.75;;;;;24.90;101531.00;;;;12898165;22;20212;-81
2021/09/05 16:41:57;;;;;;;11.15;8.48;;;;;24.80;101534.00;;;;12871579;22;20174;-81
2021/09/05 16:47:01;;;;;;;10.70;8.50;;;;;24.70;101533.00;;;;12896884;22;20200;-81
2021/09/05 16:52:03;;;;;;;11.65;9.05;;;;;24.50;101538.00;;;;12846194;22;20207;-81
2021/09/05 16:57:05;;;;;;;10.90;8.57;;;;;24.40;101537.00;;;;12871231;22;20177;-81
2021/09/05 17:02:07;;;;;;;8.85;7.95;;;;;24.30;101539.00;;;;12863359;22;20178;-80
2021/09/05 17:07:08;;;;;;;10.82;8.43;;;;;24.20;101546.00;;;;12891241;22;20197;-81
2021/09/05 17:12:10;;;;;;;11.32;8.30;;;;;24.00;101550.00;;;;12866030;22;20509;-81
2021/09/05 17:17:12;;;;;;;10.50;8.30;;;;;23.90;101554.00;;;;12870553;22;20248;-81
2021/09/05 17:22:13;;;;;;;10.98;8.63;;;;;23.70;101560.00;;;;12897622;22;20856;-81
2021/09/05 17:27:16;;;;;;;11.25;8.40;;;;;23.60;101557.00;;;;12870154;22;20193;-81
2021/09/05 17:32:18;;;;;;;11.82;10.10;;;;;23.30;101565.00;;;;12869339;22;20200;-81
2021/09/05 17:37:21;;;;;;;11.20;9.15;;;;;23.10;101564.00;;;;12870115;22;20237;-82
2021/09/05 17:42:22;;;;;;;11.13;9.90;;;;;22.90;101569.00;;;;12892198;22;20173;-81
2021/09/05 17:47:24;;;;;;;19.35;12.32;;;;;22.70;101579.00;;;;12914593;22;20531;-80
2021/09/05 17:52:26;;;;;;;11.65;9.45;;;;;22.50;101575.00;;;;12868338;22;20186;-80
2021/09/05 17:57:28;;;;;;;11.07;9.13;;;;;22.20;101580.00;;;;12865779;22;20173;-80
2021/09/05 18:02:31;;;;;;;13.13;9.50;;;;;21.80;101581.00;;;;12844340;22;20229;-81
2021/09/05 18:07:34;;;;;;;12.63;9.05;;;;;21.60;101582.00;;;;12895427;22;20263;-81
2021/09/05 18:12:38;;;;;;;12.57;9.27;;;;;21.30;101580.00;;;;12894213;22;20334;-81
2021/09/05 18:17:39;;;;;;;11.50;9.25;;;;;21.00;101587.00;;;;12866063;22;20202;-80
2021/09/05 18:22:45;;;;;;;15.55;9.38;;;;;20.70;101589.00;;;;12890831;22;20173;-81
2021/09/05 18:27:49;;;;;;;12.05;9.05;;;;;20.50;101591.00;;;;12935687;22;20180;-81
2021/09/05 18:32:52;;;;;;;10.57;9.10;;;;;20.20;101598.00;;;;12839554;22;20204;-81
2021/09/05 18:37:54;;;;;;;12.88;9.23;;;;;20.00;101608.00;;;;12893156;22;20200;-81
2021/09/05 18:42:56;;;;;;;13.85;10.02;;;;;19.80;101622.00;;;;12893303;22;20165;-80
2021/09/05 18:47:58;;;;;;;12.43;9.45;;;;;19.60;101623.00;;;;12869112;22;20170;-81
2021/09/05 18:53:03;;;;;;;12.77;10.30;;;;;19.50;101633.00;;;;12892568;22;20211;-80
2021/09/05 18:58:04;;;;;;;15.35;10.80;;;;;19.30;101632.00;;;;12887740;22;20177;-80
2021/09/05 19:03:06;;;;;;;15.43;11.68;;;;;19.20;101647.00;;;;12864853;22;20198;-79
2021/09/05 19:08:11;;;;;;;13.52;11.77;;;;;19.00;101651.00;;;;12864172;22;20173;-80
2021/09/05 19:13:14;;;;;;;16.73;12.25;;;;;18.90;101659.00;;;;12859965;22;20227;-80
2021/09/05 19:18:16;;;;;;;16.00;11.30;;;;;18.80;101656.00;;;;12837778;22;20200;-79
2021/09/05 19:23:17;;;;;;;15.63;12.25;;;;;18.60;101655.00;;;;12842582;22;21009;-80
2021/09/05 19:28:20;;;;;;;13.85;10.55;;;;;18.50;101664.00;;;;12866759;22;20170;-79
2021/09/05 19:33:22;;;;;;;15.35;10.93;;;;;18.40;101667.00;;;;12864551;22;20672;-80
2021/09/05 19:38:23;;;;;;;14.65;11.57;;;;;18.20;101666.00;;;;12864535;22;20632;-79
2021/09/05 19:43:25;;;;;;;15.32;11.73;;;;;18.10;101669.00;;;;12890838;22;20683;-80
2021/09/05 19:48:27;;;;;;;14.13;10.98;;;;;18.00;101682.00;;;;12865513;22;20178;-80
2021/09/05 19:53:29;;;;;;;16.00;11.40;;;;;17.90;101684.00;;;;12890333;22;20173;-79
2021/09/05 19:58:32;;;;;;;15.00;11.60;;;;;17.70;101691.00;;;;12864672;22;20260;-80
2021/09/05 20:03:34;;;;;;;16.83;12.02;;;;;17.60;101694.00;;;;12844210;22;20193;-80
2021/09/05 20:08:35;;;;;;;17.13;12.65;;;;;17.50;101694.00;;;;12890367;22;20170;-80
2021/09/05 20:13:37;;;;;;;18.02;13.80;;;;;17.40;101706.00;;;;12865939;22;20239;-80
2021/09/05 20:18:39;;;;;;;17.92;12.88;;;;;17.30;101718.00;;;;12861304;22;20573;-79
2021/09/05 20:23:43;;;;;;;18.15;13.10;;;;;17.20;101714.00;;;;12857427;22;20288;-80
2021/09/05 20:28:44;;;;;;;19.08;13.68;;;;;17.10;101713.00;;;;12864269;22;20257;-80
2021/09/05 20:33:45;;;;;;;16.15;13.77;;;;;17.00;101712.00;;;;12866553;22;20223;-79
2021/09/05 20:38:47;;;;;;;16.60;12.93;;;;;16.90;101706.00;;;;12889949;22;20165;-80
2021/09/05 20:43:48;;;;;;;18.98;13.02;;;;;16.80;101718.00;;;;12863930;22;20197;-79
2021/09/05 20:48:49;;;;;;;19.55;13.40;;;;;16.70;101716.00;;;;12857406;22;20220;-79
2021/09/05 20:53:50;;;;;;;18.27;14.80;;;;;16.60;101718.00;;;;12828735;22;20191;-79
2021/09/05 20:58:51;;;;;;;21.15;14.07;;;;;16.60;101719.00;;;;12852443;22;20660;-79
2021/09/05 21:03:54;;;;;;;19.80;14.27;;;;;16.50;101722.00;;;;12825457;22;20680;-79
2021/09/05 21:08:56;;;;;;;17.77;13.30;;;;;16.40;101716.00;;;;12855521;22;20176;-80
2021/09/05 21:13:57;;;;;;;18.83;14.43;;;;;16.30;101721.00;;;;12837639;22;20184;-80
2021/09/05 21:18:58;;;;;;;21.53;14.10;;;;;16.20;101729.00;;;;12891267;22;20190;-80
2021/09/05 21:24:00;;;;;;;20.37;13.70;;;;;16.20;101728.00;;;;12882199;22;20304;-80
2021/09/05 21:29:02;;;;;;;20.17;14.67;;;;;16.10;101725.00;;;;12860622;22;20180;-80
2021/09/05 21:34:03;;;;;;;20.10;15.03;;;;;16.00;101731.00;;;;12859636;22;20177;-79
2021/09/05 21:39:05;;;;;;;19.97;14.57;;;;;16.00;101732.00;;;;12857649;22;20247;-79
2021/09/05 21:44:06;;;;;;;18.87;15.73;;;;;15.90;101729.00;;;;12932080;22;20189;-79
2021/09/05 21:49:07;;;;;;;24.67;16.97;;;;;15.90;101731.00;;;;12860962;22;20178;-80
2021/09/05 21:54:08;;;;;;;21.03;16.10;;;;;15.80;101726.00;;;;12888096;22;20536;-80
2021/09/05 21:59:09;;;;;;;20.13;15.63;;;;;15.70;101723.00;;;;12843418;22;20181;-80
2021/09/05 22:04:11;;;;;;;20.20;15.77;;;;;15.70;101715.00;;;;12874027;22;20259;-79
2021/09/05 22:09:12;;;;;;;21.27;15.33;;;;;15.60;101710.00;;;;12872460;22;20224;-79
2021/09/05 22:14:13;;;;;;;21.27;15.70;;;;;15.60;101705.00;;;;12848288;22;20742;-80
2021/09/05 22:19:15;;;;;;;22.47;15.40;;;;;15.50;101706.00;;;;12877302;22;20264;-79
2021/09/05 22:24:16;;;;;;;21.60;16.83;;;;;15.40;101697.00;;;;12851511;22;20676;-80
2021/09/05 22:29:17;;;;;;;23.70;16.47;;;;;15.30;101700.00;;;;12876335;22;20180;-80
2021/09/05 22:34:18;;;;;;;23.67;17.50;;;;;15.30;101707.00;;;;12901420;22;20192;-80
2021/09/05 22:39:20;;;;;;;24.80;15.67;;;;;15.20;101702.00;;;;12875998;23;20173;-80
2021/09/05 22:44:21;;;;;;;21.23;15.77;;;;;15.20;101700.00;;;;12878238;22;20185;-80
2021/09/05 22:49:22;;;;;;;20.33;15.83;;;;;15.10;101705.00;;;;12901432;22;20220;-80
2021/09/05 22:54:23;;;;;;;20.60;15.03;;;;;15.10;101704.00;;;;12875738;22;20170;-80
2021/09/05 22:59:24;;;;;;;21.30;15.77;;;;;15.00;101703.00;;;;12901310;22;20908;-80
2021/09/05 23:04:25;;;;;;;22.50;16.57;;;;;14.90;101706.00;;;;12876875;22;20197;-79
2021/09/05 23:09:27;;;;;;;24.00;17.03;;;;;14.90;101706.00;;;;12877443;23;20172;-80
2021/09/05 23:14:28;;;;;;;23.10;16.17;;;;;14.80;101715.00;;;;12899968;22;20196;-80
2021/09/05 23:19:29;;;;;;;22.97;16.73;;;;;14.80;101717.00;;;;12852186;22;20201;-80
2021/09/05 23:24:30;;;;;;;22.83;15.53;;;;;14.70;101701.00;;;;12901020;22;20608;-80
2021/09/05 23:29:32;;;;;;;23.43;15.43;;;;;14.60;101706.00;;;;12874314;22;20177;-80
2021/09/05 23:34:33;;;;;;;21.43;15.83;;;;;14.50;101706.00;;;;12851163;22;20173;-80
2021/09/05 23:39:35;;;;;;;24.87;16.73;;;;;14.40;101700.00;;;;12875632;22;20268;-80
2021/09/05 23:44:37;;;;;;;22.23;16.37;;;;;14.40;101695.00;;;;12898786;22;20285;-79
2021/09/05 23:49:38;;;;;;;26.17;18.00;;;;;14.30;101705.00;;;;12899578;22;20169;-80
2021/09/05 23:54:42;;;;;;;20.20;15.90;;;;;14.20;101703.00;;;;12876195;22;20182;-80
2021/09/05 23:59:44;;;;;;;23.60;17.47;;;;;14.20;101705.00;;;;12874638;22;20173;-80
